Latest Coastal Weather Observations for Evans Head

IDN60701

Issued at 4:32 pm EST Monday 27 May 2019 (issued every 10 minutes, with the page automatically refreshed every 10 minutes)

About coastal observations | Map of coastal stations | Coastal observations for NSW | Marine services | Other Formats
Station Details ID: 058212 Name: EVANS HEAD RAAF BOMBING RANGE AWS Lat: -29.18 Lon: 153.40 Height: 62.5 m
Data from the previous 72 hours. | See also: Recent months at Evans Head
Date/Time
EST
Wind Sea
Height
m
Swell Vis
km
Cloud Weather Temp
°C
Press
hPa
Rain since
9am
mm
Dir  Spd
kts
Gust
kts
Height
m
Period
s
Dir
27/04:30pm WNW 12 20 - - - - - - - 22.7 1008.8 0.0
27/04:00pm WNW 11 22 - - - - - - - 23.3 1008.7 0.0
27/03:43pm WNW 15 25 - - - - - - - 24.2 1008.6 0.0
27/03:30pm WNW 14 25 - - - - - - - 24.9 1008.5 0.0
27/03:16pm WNW 12 26 - - - - - - - 25.4 1008.3 0.0
27/03:00pm NW 7 13 - - - - - - - 26.1 1008.4 0.0
27/02:30pm WNW 12 21 - - - - - - - 26.4 1008.7 0.0
27/02:00pm WNW 14 21 - - - - - - - 26.5 1008.5 0.0
27/01:30pm WNW 12 20 - - - - - - - 26.5 1008.9 0.0
27/01:00pm NW 12 18 - - - - - - - 26.5 1009.3 0.0
27/12:30pm NW 11 23 - - - - - - - 26.0 1010.1 0.0
27/12:00pm NW 10 20 - - - - - - - 25.6 1010.9 0.0
27/11:30am NNW 9 13 - - - - - - - 25.4 1011.7 0.0
27/11:00am NNW 7 14 - - - - - - - 24.8 1012.4 0.0
27/10:30am NW 8 13 - - - - - - - 23.5 1013.3 0.0
27/10:00am NNW 7 12 - - - - - - - 22.7 1013.7 0.0
27/09:30am NW 7 11 - - - - - - - 21.9 1014.0 0.0
27/09:00am NW 7 10 - - - - - - - 20.9 1014.3 0.0
27/08:30am NW 8 14 - - - - - - - 19.7 1014.3 0.0
27/08:00am NW 7 12 - - - - - - - 18.5 1014.4 0.0
27/07:30am NW 7 11 - - - - - - - 17.0 1014.3 0.0
27/07:00am WNW 7 13 - - - - - - - 15.7 1014.2 0.0
27/06:30am WNW 9 12 - - - - - - - 15.5 1014.1 0.0
27/06:00am W 7 10 - - - - - - - 15.5 1014.0 0.0
27/05:30am NW 6 8 - - - - - - - 14.5 1013.6 0.0
27/05:00am NW 6 9 - - - - - - - 14.8 1013.3 0.0
27/04:30am NW 6 10 - - - - - - - 15.4 1013.3 0.0
27/04:00am WNW 8 12 - - - - - - - 16.2 1013.5 0.0
27/03:30am NW 5 7 - - - - - - - 15.9 1013.3 0.0
27/03:00am NW 5 7 - - - - - - - 15.8 1013.4 0.0
27/02:30am NW 5 7 - - - - - - - 15.7 1013.6 0.0
27/02:00am NW 6 10 - - - - - - - 15.8 1013.8 0.0
27/01:30am NW 6 8 - - - - - - - 15.7 1014.1 0.0
27/01:00am WNW 5 7 - - - - - - - 15.5 1014.2 0.0
27/12:30am NW 6 7 - - - - - - - 15.2 1014.3 0.0
27/12:00am NW 6 8 - - - - - - - 15.3 1014.5 0.0
 
Date/Time
EST
Wind Sea
Height
m
Swell Vis
km
Cloud Weather Temp
°C
Press
hPa
Rain since
9am
mm
Dir  Spd
kts
Gust
kts
Height
m
Period
s
Dir
26/11:30pm NW 6 9 - - - - - - - 15.9 1014.7 0.0
26/11:00pm NW 7 10 - - - - - - - 16.2 1014.8 0.0
26/10:30pm NW 7 9 - - - - - - - 16.2 1015.0 0.0
26/10:00pm NW 7 9 - - - - - - - 16.2 1015.1 0.0
26/09:30pm NNW 6 8 - - - - - - - 16.3 1015.1 0.0
26/09:00pm NNW 5 7 - - - - - - - 17.0 1015.3 0.0
26/08:30pm N 6 9 - - - - - - - 17.5 1015.3 0.0
26/08:00pm N 7 8 - - - - - - - 17.3 1015.3 0.0
26/07:30pm N 8 9 - - - - - - - 17.8 1015.3 0.0
26/07:00pm N 8 9 - - - - - - - 18.3 1015.1 0.0
26/06:30pm NNW 7 10 - - - - - - - 17.9 1014.9 0.0
26/06:00pm N 8 10 - - - - - - - 18.8 1014.6 0.0
26/05:30pm N 8 11 - - - - - - - 19.2 1014.4 0.0
26/05:00pm NNE 6 7 - - - - - - - 20.4 1014.2 0.0
26/04:30pm ENE 5 7 - - - - - - - 21.1 1014.0 0.0
26/04:00pm ENE 6 9 - - - - - - - 21.6 1013.8 0.0
26/03:30pm NE 5 8 - - - - - - - 22.8 1013.7 0.0
26/03:00pm ESE 7 9 - - - - - - - 23.1 1013.6 0.0
26/02:30pm S 2 6 - - - - - - - 25.3 1013.7 0.0
26/02:00pm ENE 3 5 - - - - - - - 24.6 1013.9 0.0
26/01:30pm CALM 0 0 - - - - - - - 22.8 1014.2 0.0
26/01:00pm WNW 6 11 - - - - - - - 26.1 1014.4 0.0
26/12:30pm NW 7 10 - - - - - - - 26.1 1014.9 0.0
26/12:00pm NW 7 11 - - - - - - - 25.4 1015.5 0.0
26/11:30am NW 7 13 - - - - - - - 24.3 1016.1 0.0
26/11:00am WNW 9 15 - - - - - - - 23.4 1016.5 0.0
26/10:30am WNW 9 15 - - - - - - - 22.9 1017.0 0.0
26/10:00am WNW 8 13 - - - - - - - 22.0 1017.4 0.0
26/09:30am WNW 6 9 - - - - - - - 20.9 1017.9 0.0
26/09:00am WNW 7 12 - - - - - - - 19.2 1017.8 0.0
26/08:30am WNW 6 10 - - - - - - - 19.1 1017.7 0.0
26/08:00am WNW 7 11 - - - - - - - 18.8 1017.7 0.0
26/07:30am W 7 11 - - - - - - - 16.7 1017.6 0.0
26/07:00am W 4 7 - - - - - - - 16.3 1017.2 0.0
26/06:30am WNW 4 7 - - - - - - - 16.1 1017.0 0.0
26/06:00am NW 5 9 - - - - - - - 15.8 1016.8 0.0
26/05:30am NNW 6 12 - - - - - - - 15.5 1016.7 0.0
26/05:00am NW 5 9 - - - - - - - 15.9 1016.9 0.0
26/04:30am W 2 5 - - - - - - - 16.2 1016.9 0.0
26/04:00am NNW 3 5 - - - - - - - 14.7 1016.8 0.0
26/03:30am NNW 5 7 - - - - - - - 14.8 1017.0 0.0
26/03:00am NNW 6 8 - - - - - - - 14.5 1017.3 0.0
26/02:30am NNW 6 7 - - - - - - - 14.4 1017.6 0.0
26/02:00am NNW 5 7 - - - - - - - 14.5 1017.8 0.0
26/01:30am NNW 4 5 - - - - - - - 14.7 1018.2 0.0
26/01:00am NNW 5 7 - - - - - - - 14.6 1018.4 0.0
26/12:30am NNW 5 7 - - - - - - - 14.6 1018.5 0.0
26/12:00am NNW 6 7 - - - - - - - 14.9 1018.8 0.0
 
Date/Time
EST
Wind Sea
Height
m
Swell Vis
km
Cloud Weather Temp
°C
Press
hPa
Rain since
9am
mm
Dir  Spd
kts
Gust
kts
Height
m
Period
s
Dir
25/11:30pm NNW 5 7 - - - - - - - 14.9 1019.0 0.0
25/11:00pm NNW 7 9 - - - - - - - 15.1 1019.2 0.0
25/10:30pm NNW 6 7 - - - - - - - 15.5 1019.5 0.0
25/10:00pm NNW 6 8 - - - - - - - 15.5 1019.4 0.0
25/09:30pm NNW 6 7 - - - - - - - 15.6 1019.5 0.0
25/09:00pm NNW 6 9 - - - - - - - 15.8 1019.6 0.0
25/08:30pm NNW 6 9 - - - - - - - 15.7 1019.5 0.0
25/08:00pm NNW 7 8 - - - - - - - 15.9 1019.4 0.0
25/07:30pm N 7 9 - - - - - - - 16.0 1019.3 0.0
25/07:00pm NNW 6 7 - - - - - - - 16.2 1019.2 0.0
25/06:30pm N 6 8 - - - - - - - 16.8 1019.1 0.0
25/06:00pm N 6 7 - - - - - - - 17.0 1018.8 0.0
25/05:30pm N 5 6 - - - - - - - 17.5 1018.6 0.0
25/05:00pm NNE 6 8 - - - - - - - 18.8 1018.3 0.0
25/04:30pm NNE 4 7 - - - - - - - 19.5 1018.4 0.0
25/04:00pm N 4 6 - - - - - - - 19.9 1018.5 0.0
25/03:30pm NE 4 7 - - - - - - - 20.0 1018.4 0.0
25/03:00pm ENE 6 8 - - - - - - - 20.1 1018.3 0.0
25/02:30pm ENE 6 8 - - - - - - - 20.3 1018.5 0.0
25/02:00pm E 6 8 - - - - - - - 20.6 1018.6 0.0
25/01:30pm E 6 9 - - - - - - - 21.7 1018.9 0.0
25/01:00pm N 2 5 - - - - - - - 21.8 1019.3 0.0
25/12:30pm ENE 4 6 - - - - - - - 21.3 1019.5 0.0
25/12:00pm NE 4 6 - - - - - - - 22.4 1019.9 0.0
25/11:30am N 5 7 - - - - - - - 24.1 1020.4 0.0
25/11:00am N 4 6 - - - - - - - 22.8 1021.0 0.0
25/10:30am W 2 4 - - - - - - - 21.4 1021.5 0.0
25/10:00am NW 2 5 - - - - - - - 20.9 1022.0 0.0
25/09:30am NNW 4 6 - - - - - - - 20.7 1022.3 0.0
25/09:00am W 4 6 - - - - - - - 18.5 1022.3 0.2
25/08:30am W 1 5 - - - - - - - 17.6 1022.1 0.2
25/08:00am CALM 0 3 - - - - - - - 16.3 1022.3 0.2
25/07:30am W 4 5 - - - - - - - 14.3 1022.2 0.2
25/07:00am W 5 6 - - - - - - - 14.9 1022.0 0.0
25/06:30am W 6 8 - - - - - - - 14.2 1021.6 0.0
25/06:00am WSW 7 8 - - - - - - - 14.5 1021.6 0.0
25/05:30am WSW 4 6 - - - - - - - 14.9 1021.4 0.0
25/05:00am W 6 7 - - - - - - - 14.9 1021.2 0.0
25/04:30am WSW 6 8 - - - - - - - 15.3 1021.0 0.0
25/04:00am WSW 7 9 - - - - - - - 15.6 1020.9 0.0
25/03:30am W 7 8 - - - - - - - 15.8 1020.9 0.0
25/03:00am W 6 8 - - - - - - - 15.7 1020.9 0.0
25/02:30am WSW 7 8 - - - - - - - 16.0 1021.1 0.0
25/02:00am WSW 7 8 - - - - - - - 16.1 1021.4 0.0
25/01:30am W 8 9 - - - - - - - 16.2 1021.7 0.0
25/01:00am W 8 9 - - - - - - - 15.9 1021.7 0.0
25/12:30am W 5 5 - - - - - - - 16.3 1022.0 0.0
25/12:00am W 4 5 - - - - - - - 17.6 1022.1 0.0
 
Date/Time
EST
Wind Sea
Height
m
Swell Vis
km
Cloud Weather Temp
°C
Press
hPa
Rain since
9am
mm
Dir  Spd
kts
Gust
kts
Height
m
Period
s
Dir
24/11:30pm CALM 0 0 - - - - - - - 17.7 1022.1 0.0
24/11:00pm W 3 5 - - - - - - - 17.6 1022.4 0.0
24/10:30pm WNW 2 4 - - - - - - - 18.2 1022.4 0.0
24/10:00pm NW 3 4 - - - - - - - 17.5 1022.5 0.0
24/09:30pm NNE 3 4 - - - - - - - 17.9 1022.3 0.0
24/09:00pm ENE 4 5 - - - - - - - 18.5 1022.6 0.0
24/08:30pm NNE 3 4 - - - - - - - 17.7 1022.7 0.0
24/08:00pm ENE 5 6 - - - - - - - 18.3 1022.7 0.0
24/07:30pm E 4 5 - - - - - - - 18.4 1022.7 0.0
24/07:00pm ENE 4 5 - - - - - - - 18.3 1022.6 0.0
24/06:30pm NE 5 6 - - - - - - - 18.0 1022.4 0.0
24/06:00pm NE 3 4 - - - - - - - 18.1 1022.2 0.0
24/05:30pm ENE 4 5 - - - - - - - 18.5 1022.0 0.0
24/05:00pm E 4 5 - - - - - - - 18.7 1021.8 0.0

Other formats

Comma delimited format used in spreadsheet applications
http://www.bom.gov.au/fwo/IDN60701/IDN60701.94598.axf

JavaScript Object Notation format (JSON) in row-major order
http://www.bom.gov.au/fwo/IDN60701/IDN60701.94598.json

Data quality

Most of these data are generated automatically and are frequently updated. Quality checks on data are not normally performed. It is possible for incorrect values to appear. Refer to information at About Latest Weather Observations and please check the disclaimer before using these data.